Turner Lake (351) Station Data

Red Flag Warning: No
Fire Weather Zone: 250
SDGE Region: North East
Lat/Lon: 33.226/-117.076

Observations

Time Wind Speed/Gust Temp(F) RH Fuel Moist Fuel Temp(F) Dewpt(F) Tmax(F) Tmin(F) Accum Precip 10-min Precip SL Press(mb)
2/27 11:40pm 275 6 G 10 50° 94% - - 48° 53.8° 42.5° - - 892.0
2/27 11:20pm 285 2 G 4 50° 94% - - 48° 53.8° 42.5° - - 892.0
2/27 11:10pm 280 1 G 3 50° 94% - - 48° 53.8° 42.5° - - 892.0
2/27 11:00pm 321 3 G 5 50° 93% - - 48° 53.8° 42.5° - - 892.0
2/27 10:50pm 335 2 G 4 50° 93% - - 48° 53.8° 42.5° - - 892.0
2/27 10:40pm 10 1 G 2 50° 93% - - 48° 53.8° 42.5° - - 892.0
2/27 10:30pm 356 1 G 2 50° 93% - - 48° 53.8° 42.5° - - 892.0
2/27 10:20pm 287 2 G 3 50° 93% - - 48° 53.8° 42.5° - - 892.0
2/27 10:10pm 334 2 G 3 50° 93% - - 48° 53.8° 42.5° - - 892.0
2/27 10:00pm 10 2 G 2 50° 93% - - 48° 53.8° 42.5° - - 892.0
2/27 9:50pm 0 2 G 4 50° 93% - - 48° 53.8° 42.5° - - 892.0
2/27 9:40pm 330 3 G 4 50° 93% - - 48° 53.8° 42.5° - - 892.0
2/27 9:30pm 331 5 G 8 50° 93% - - 48° 53.8° 42.5° - - 892.0
2/27 9:20pm 328 5 G 8 50° 93% - - 48° 53.8° 42.5° - - 892.0
2/27 9:10pm 326 5 G 8 51° 93% - - 49° 53.8° 42.5° - - 892.0
2/27 9:00pm 323 4 G 8 51° 93% - - 49° 53.8° 42.5° - - 892.0
2/27 8:50pm 331 2 G 4 51° 93% - - 49° 53.8° 42.5° - - 892.0
2/27 8:40pm 317 2 G 3 51° 93% - - 49° 53.8° 42.5° - - 892.0
2/27 8:30pm 312 2 G 4 51° 93% - - 49° 53.8° 42.5° - - 892.0
2/27 8:20pm 344 3 G 5 51° 93% - - 49° 53.8° 42.5° - - 892.0
2/27 8:10pm 353 4 G 6 51° 92% - - 49° 53.8° 42.5° - - 892.0
2/27 8:00pm 323 3 G 5 51° 92% - - 49° 53.8° 42.5° - - 892.0
2/27 7:50pm 280 5 G 8 52° 92% - - 50° 53.8° 42.5° - - 892.0
2/27 7:40pm 272 5 G 9 52° 92% - - 50° 53.8° 42.5° - - 892.0
2/27 7:30pm 248 6 G 11 52° 92% - - 50° 53.8° 42.5° - - 892.0
2/27 7:20pm 249 8 G 19 52° 92% - - 50° 53.8° 42.5° - - 892.0
2/27 7:10pm 191 7 G 16 52° 92% - - 50° 53.8° 42.5° - - 892.0
2/27 7:00pm 190 6 G 18 52° 92% - - 50° 53.8° 42.5° - - 891.0
2/27 6:50pm 203 5 G 12 52° 92% - - 50° 53.8° 42.5° - - 892.0
2/27 6:40pm 255 10 G 19 52° 92% - - 50° 53.8° 42.5° - - 892.0
2/27 6:30pm 249 12 G 23 52° 92% - - 50° 53.8° 42.5° - - 892.0
2/27 6:20pm 256 9 G 20 52° 92% - - 50° 53.8° 42.5° - - 892.0
2/27 6:10pm 208 6 G 20 52° 92% - - 50° 53.8° 42.5° - - 892.0
2/27 6:00pm 189 12 G 23 52° 92% - - 50° 53.8° 42.5° - - 892.0
2/27 5:50pm 183 10 G 20 52° 92% - - 50° 53.8° 42.5° - - 892.0
2/27 5:40pm 189 10 G 24 52° 92% - - 50° 53.8° 42.5° - - 892.0
2/27 5:30pm 209 6 G 19 52° 92% - - 50° 53.8° 42.5° - - 892.0
2/27 5:20pm 210 7 G 19 52° 92% - - 50° 53.8° 42.5° - - 892.0
2/27 5:10pm 222 8 G 20 53° 92% - - 50° 53.8° 42.5° - - 892.0
2/27 5:00pm 237 10 G 20 53° 92% - - 50° 53.8° 42.5° - - 892.0
2/27 4:50pm 247 8 G 20 52° 92% - - 50° 53.8° 42.5° - - 892.0
2/27 4:40pm 241 5 G 12 52° 92% - - 50° 53.8° 42.5° - - 892.0
2/27 4:30pm 211 6 G 18 53° 92% - - 50° 53.8° 42.5° - - 892.0
2/27 4:20pm 203 14 G 24 53° 92% - - 50° 53.8° 42.5° - - 892.0
2/27 4:10pm 201 15 G 32 53° 92% - - 50° 53.8° 42.5° - - 892.0
2/27 4:00pm 199 17 G 28 53° 92% - - 50° 53.8° 42.5° - - 892.0
2/27 3:50pm 206 9 G 28 53° 92% - - 51° 53.8° 42.5° - - 892.0
2/27 3:40pm 203 12 G 27 53° 92% - - 51° 53.8° 42.5° - - 892.0
2/27 3:30pm 227 10 G 20 53° 92% - - 51° 53.8° 42.5° - - 892.0
2/27 3:20pm 200 9 G 25 53° 92% - - 51° 53.8° 42.5° - - 892.0
2/27 3:10pm 237 6 G 13 53° 92% - - 51° 53.8° 42.5° - - 892.0
2/27 3:00pm 205 10 G 21 53° 92% - - 51° 53.8° 42.5° - - 892.0
2/27 2:50pm 200 16 G 29 53° 92% - - 51° 53.8° 42.5° - - 892.0
2/27 2:40pm 202 18 G 30 53° 92% - - 51° 53.8° 42.5° - - 892.0
2/27 2:30pm 199 17 G 39 53° 92% - - 51° 53.8° 42.5° - - 892.0
2/27 2:20pm 193 14 G 31 53° 93% - - 51° 53.8° 42.5° - - 892.0
2/27 2:10pm 205 12 G 26 53° 93% - - 51° 53.8° 42.5° - - 892.0
2/27 2:00pm 188 10 G 19 53° 93% - - 51° 53.8° 42.5° - - 892.0
2/27 1:50pm 190 8 G 20 54° 93% - - 51° 53.8° 42.5° - - 892.0
2/27 1:40pm 208 10 G 29 54° 93% - - 51° 53.8° 42.5° - - 892.0
2/27 1:30pm 194 10 G 21 54° 93% - - 51° 53.8° 42.5° - - 892.0
2/27 1:20pm 189 9 G 17 54° 93% - - 51° 53.8° 42.5° - - 892.0
2/27 1:10pm 202 10 G 25 54° 93% - - 51° 53.8° 42.5° - - 892.0
2/27 1:00pm 202 9 G 18 53° 93% - - 51° 53.8° 42.5° - - 892.0
2/27 12:50pm 188 9 G 19 53° 92% - - 51° 53.8° 42.5° - - 892.0
2/27 12:40pm 197 10 G 15 53° 92% - - 51° 53.8° 42.5° - - 892.0
2/27 12:30pm 199 11 G 21 53° 92% - - 51° 53.8° 42.5° - - 892.0
2/27 12:20pm 192 12 G 20 53° 92% - - 51° 53.8° 42.5° - - 892.0
2/27 12:10pm 190 12 G 18 53° 92% - - 50° 53.8° 42.5° - - 892.0
2/27 12:00pm 189 10 G 20 52° 92% - - 50° 53.8° 42.5° - - 892.0
2/27 11:50am 190 5 G 14 52° 92% - - 50° 53.8° 42.5° - - 892.0
2/27 11:40am 196 4 G 11 53° 92% - - 50° 53.8° 42.5° - - 892.0
2/27 11:30am 214 5 G 10 53° 92% - - 51° 53.8° 42.5° - - 892.0
2/27 11:20am 208 9 G 18 53° 92% - - 51° 53.8° 42.5° - - 892.0
2/27 11:10am 199 13 G 23 53° 92% - - 51° 53.8° 42.5° - - 892.0
2/27 11:00am 200 14 G 23 53° 92% - - 51° 53.8° 42.5° - - 892.0
2/27 10:50am 208 15 G 27 53° 93% - - 51° 53.8° 42.5° - - 892.0
2/27 10:40am 203 18 G 31 53° 93% - - 51° 53.8° 42.5° - - 892.0
2/27 10:30am 199 18 G 27 53° 93% - - 51° 53.8° 42.5° - - 892.0
2/27 10:20am 199 14 G 22 53° 93% - - 51° 53.8° 42.5° - - 892.0
2/27 10:10am 194 13 G 22 53° 93% - - 51° 53.8° 42.5° - - 892.0
2/27 10:00am 194 8 G 18 53° 93% - - 51° 53.8° 42.5° - - 892.0
2/27 9:50am 206 7 G 15 53° 93% - - 51° 53.8° 42.5° - - 892.0
2/27 9:40am 203 7 G 13 53° 93% - - 52° 53.8° 42.5° - - 892.0
2/27 9:30am 192 5 G 12 54° 93% - - 52° 53.8° 42.5° - - 892.0
2/27 9:20am 198 5 G 15 54° 93% - - 52° 53.8° 42.5° - - 892.0
2/27 9:10am 198 9 G 18 54° 93% - - 52° 53.8° 42.5° - - 892.0
2/27 9:00am 195 9 G 17 54° 93% - - 52° 53.8° 42.5° - - 892.0
2/27 8:50am 191 9 G 17 54° 93% - - 52° 53.7° 42.5° - - 892.0
2/27 8:40am 190 9 G 18 54° 93% - - 52° 53.7° 42.5° - - 892.0
2/27 8:30am 205 6 G 13 53° 93% - - 52° 53.7° 42.5° - - 892.0
2/27 8:20am 187 4 G 12 53° 93% - - 51° 53.5° 42.5° - - 892.0
2/27 8:10am 190 6 G 11 53° 93% - - 51° 53.5° 42.5° - - 892.0
2/27 8:00am 185 6 G 10 53° 93% - - 51° 53.2° 42.5° - - 892.0
2/27 7:50am 192 4 G 11 53° 93% - - 51° 53.1° 42.5° - - 892.0
2/27 7:40am 202 4 G 9 53° 93% - - 51° 52.7° 42.5° - - 892.0
2/27 7:30am 190 5 G 13 52° 93% - - 50° 52.5° 42.5° - - 892.0
2/27 7:20am 183 2 G 6 51° 93% - - 49° 51.9° 42.5° - - 891.0
2/27 7:10am 210 2 G 6 50° 93% - - 48° 51.3° 42.5° - - 891.0
2/27 7:00am 177 2 G 6 49° 93% - - 47° 50.4° 42.5° - - 891.0
2/27 6:50am 196 2 G 5 49° 93% - - 47° 50.4° 42.5° - - 891.0
2/27 6:40am 88 1 G 4 48° 93% - - 46° 49.1° 42.5° - - 890.0
2/27 6:30am 144 3 G 5 48° 93% - - 46° 48.1° 42.5° - - 890.0
2/27 6:20am 130 2 G 6 47° 93% - - 45° 48.1° 42.5° - - 890.0
2/27 6:10am 116 1 G 4 47° 93% - - 45° 48.1° 42.5° - - 890.0
2/27 6:00am 152 2 G 3 47° 92% - - 44° 48.1° 42.5° - - 890.0
2/27 5:50am 157 2 G 2 46° 92% - - 44° 48.1° 42.5° - - 890.0
2/27 5:40am 193 1 G 2 46° 92% - - 44° 48.1° 42.5° - - 890.0
2/27 5:30am 321 1 G 3 46° 92% - - 44° 48.1° 42.5° - - 890.0
2/27 5:20am 327 3 G 5 47° 92% - - 44° 48.1° 42.5° - - 890.0
2/27 5:10am 329 3 G 7 47° 92% - - 45° 48.1° 42.5° - - 890.0
2/27 5:00am 188 2 G 3 48° 92% - - 46° 48° 42.5° - - 890.0
2/27 4:50am 241 1 G 3 48° 92% - - 46° 48° 42.5° - - 890.0
2/27 4:40am 143 2 G 4 48° 92% - - 45° 48° 42.5° - - 890.0
2/27 4:30am 117 2 G 3 48° 92% - - 45° 47.8° 42.5° - - 890.0
2/27 4:20am 97 3 G 5 47° 92% - - 45° 47.5° 42.5° - - 890.0
2/27 4:10am 125 5 G 7 47° 92% - - 45° 47.4° 42.5° - - 890.0
2/27 4:00am 125 5 G 7 47° 92% - - 45° 47.3° 42.5° - - 890.0
2/27 3:50am 131 5 G 7 47° 92% - - 45° 47.2° 42.5° - - 890.0
2/27 3:40am 136 4 G 6 47° 92% - - 45° 47.1° 42.5° - - 890.0
2/27 3:30am 122 4 G 6 47° 92% - - 44° 46.9° 42.5° - - 890.0
2/27 3:20am 126 3 G 5 47° 91% - - 44° 46.9° 42.5° - - 889.0
2/27 3:10am 130 5 G 7 47° 91% - - 44° 46.8° 42.5° - - 889.0
2/27 3:00am 128 5 G 7 46° 91% - - 44° 46.7° 42.5° - - 889.0
2/27 2:50am 136 5 G 7 46° 91% - - 44° 46.7° 42.5° - - 889.0
2/27 2:40am 136 5 G 8 46° 91% - - 44° 46.7° 42.5° - - 889.0
2/27 2:30am 141 5 G 7 46° 90% - - 43° 46.7° 42.5° - - 889.0
2/27 2:20am 130 5 G 7 46° 90% - - 43° 46.7° 42.5° - - 889.0
2/27 2:10am 129 4 G 5 46° 89% - - 43° 46.7° 42.5° - - 888.0
2/27 2:00am 126 4 G 6 46° 88% - - 43° 46.7° 42.5° - - 888.0
2/27 1:50am 136 3 G 5 46° 87% - - 42° 46.7° 42.5° - - 887.0
2/27 1:40am 134 3 G 5 46° 84% - - 41° 46.7° 42.5° - - 886.0
2/27 1:30am 125 5 G 8 46° 82% - - 41° 46.7° 42.5° - - 885.0
2/27 1:20am 134 5 G 8 46° 79% - - 40° 46.6° 42.5° - - 884.0
2/27 1:10am 123 6 G 8 46° 78% - - 39° 46° 42.5° - - 884.0
2/27 1:00am 115 6 G 8 45° 78% - - 39° 45.7° 42.5° - - 883.0
2/27 12:50am 121 7 G 9 45° 79% - - 39° 45.4° 42.5° - - 884.0
2/27 12:40am 127 8 G 10 44° 80% - - 38° 44.4° 42.5° - - 884.0
2/27 12:30am 125 7 G 9 43° 81% - - 38° 43.6° 42.5° - - 884.0
2/27 12:20am 119 7 G 9 43° 81% - - 38° 43.4° 42.5° - - 884.0
2/27 12:10am 114 7 G 9 43° 82% - - 38° 43.1° 42.5° - - 884.0
2/27 12:00am 116 7 G 9 43° 82% - - 38° 53.9° 42.5° - - 885.0
2/26 11:50pm 120 7 G 10 43° 82% - - 38° 53.9° 42.5° - - 885.0
2/26 11:40pm 114 6 G 8 43° 83% - - 38° 53.9° 42.5° - - 885.0
2/26 11:30pm 130 4 G 6 43° 83% - - 38° 53.9° 42.5° - - 885.0
2/26 11:20pm 117 6 G 7 43° 83% - - 38° 53.9° 42.9° - - 885.0
2/26 11:10pm 116 6 G 8 44° 82% - - 38° 53.9° 43.1° - - 885.0
2/26 11:00pm 121 5 G 7 44° 82% - - 39° 53.9° 43.3° - - 885.0
2/26 10:50pm 123 5 G 7 44° 82% - - 38° 53.9° 43.3° - - 885.0
2/26 10:40pm 122 6 G 8 44° 82% - - 39° 53.9° 43.4° - - 885.0
2/26 10:30pm 123 6 G 8 44° 82% - - 39° 53.9° 43.9° - - 885.0
2/26 10:20pm 123 5 G 7 45° 80% - - 39° 53.9° 44° - - 884.0
2/26 10:10pm 121 4 G 5 45° 80% - - 39° 53.9° 45.1° - - 884.0
2/26 10:00pm 149 5 G 7 45° 80% - - 40° 53.9° 45.1° - - 885.0
2/26 9:50pm 160 6 G 8 46° 80% - - 40° 53.9° 45.3° - - 885.0
2/26 9:40pm 158 7 G 9 46° 79% - - 40° 53.9° 45.3° - - 885.0
2/26 9:30pm 159 7 G 9 47° 80% - - 41° 53.9° 45.3° - - 885.0
2/26 9:20pm 158 4 G 6 47° 80% - - 41° 53.9° 45.3° - - 885.0
2/26 9:10pm 144 4 G 5 47° 80% - - 41° 53.9° 45.3° - - 885.0
2/26 9:00pm 132 4 G 6 47° 79% - - 41° 53.9° 45.3° - - 885.0
2/26 8:50pm 142 4 G 6 47° 78% - - 41° 53.9° 45.3° - - 884.0
2/26 8:40pm 164 5 G 6 47° 77% - - 41° 53.9° 45.3° - - 884.0
2/26 8:30pm 170 5 G 7 47° 77% - - 41° 53.9° 45.3° - - 884.0
2/26 8:20pm 181 5 G 8 47° 78% - - 41° 53.9° 45.3° - - 884.0
2/26 8:10pm 183 5 G 7 47° 79% - - 41° 53.9° 45.3° - - 885.0
2/26 8:00pm 186 5 G 7 47° 80% - - 41° 53.9° 45.3° - - 885.0
2/26 7:50pm 183 5 G 8 47° 81% - - 41° 53.9° 45.3° - - 885.0
2/26 7:40pm 163 4 G 5 46° 80% - - 41° 53.9° 45.3° - - 885.0
2/26 7:30pm 166 3 G 5 47° 79% - - 40° 53.9° 45.3° - - 884.0
2/26 7:20pm 172 2 G 4 47° 78% - - 40° 53.9° 45.3° - - 884.0
2/26 7:10pm 199 3 G 5 47° 78% - - 41° 53.9° 45.3° - - 884.0
2/26 7:00pm 204 3 G 5 47° 77% - - 41° 53.9° 45.3° - - 884.0
2/26 6:50pm 222 3 G 5 48° 76% - - 41° 53.9° 45.3° - - 884.0
2/26 6:40pm 224 4 G 8 48° 76% - - 41° 53.9° 45.3° - - 884.0
2/26 6:30pm 218 4 G 7 48° 76% - - 41° 53.9° 45.3° - - 884.0
2/26 6:20pm 212 5 G 10 48° 76% - - 41° 53.9° 45.3° - - 884.0
2/26 6:10pm 199 5 G 9 49° 75% - - 41° 53.9° 45.3° - - 883.0
2/26 6:00pm 235 5 G 8 49° 74% - - 41° 53.9° 45.3° - - 883.0
2/26 5:50pm 250 6 G 12 49° 76% - - 42° 53.9° 45.3° - - 884.0
2/26 5:40pm 274 5 G 9 49° 79% - - 43° 53.9° 45.3° - - 885.0
2/26 5:30pm 269 5 G 10 49° 79% - - 43° 53.9° 45.3° - - 885.0
2/26 5:20pm 271 7 G 11 49° 79% - - 43° 53.9° 45.3° - - 885.0
2/26 5:10pm 269 7 G 13 50° 78% - - 43° 53.9° 45.3° - - 885.0
2/26 5:00pm 245 6 G 15 50° 77% - - 43° 53.9° 45.3° - - 885.0